sensor_id;sensor_type;location;lat;lon;timestamp;temperature;humidity
19256;DHT22;9762;52.490;13.410;2024-01-27T00:01:32;9.60;93.50
19256;DHT22;9762;52.490;13.410;2024-01-27T00:03:58;9.60;93.40
19256;DHT22;9762;52.490;13.410;2024-01-27T00:06:23;9.70;93.40
19256;DHT22;9762;52.490;13.410;2024-01-27T00:08:49;9.70;93.30
19256;DHT22;9762;52.490;13.410;2024-01-27T00:11:15;9.70;93.20
19256;DHT22;9762;52.490;13.410;2024-01-27T00:13:40;9.60;93.00
19256;DHT22;9762;52.490;13.410;2024-01-27T00:16:06;9.60;93.10
19256;DHT22;9762;52.490;13.410;2024-01-27T00:18:35;9.50;93.10
19256;DHT22;9762;52.490;13.410;2024-01-27T00:21:01;9.50;93.30
19256;DHT22;9762;52.490;13.410;2024-01-27T00:23:26;9.50;93.10
19256;DHT22;9762;52.490;13.410;2024-01-27T00:25:52;9.50;93.20
19256;DHT22;9762;52.490;13.410;2024-01-27T00:28:18;9.60;93.10
19256;DHT22;9762;52.490;13.410;2024-01-27T00:30:43;9.60;93.10
19256;DHT22;9762;52.490;13.410;2024-01-27T00:33:09;9.70;93.00
19256;DHT22;9762;52.490;13.410;2024-01-27T00:35:35;9.70;92.80
19256;DHT22;9762;52.490;13.410;2024-01-27T00:38:00;9.70;92.40
19256;DHT22;9762;52.490;13.410;2024-01-27T00:40:26;9.70;92.60
19256;DHT22;9762;52.490;13.410;2024-01-27T00:42:52;9.60;92.40
19256;DHT22;9762;52.490;13.410;2024-01-27T00:45:17;9.60;92.40
19256;DHT22;9762;52.490;13.410;2024-01-27T00:47:43;9.50;92.20
19256;DHT22;9762;52.490;13.410;2024-01-27T00:50:09;9.50;92.30
19256;DHT22;9762;52.490;13.410;2024-01-27T00:52:35;9.50;92.20
19256;DHT22;9762;52.490;13.410;2024-01-27T00:55:01;9.50;92.10
19256;DHT22;9762;52.490;13.410;2024-01-27T00:57:26;9.50;92.30
19256;DHT22;9762;52.490;13.410;2024-01-27T00:59:52;9.50;92.20
19256;DHT22;9762;52.490;13.410;2024-01-27T01:02:18;9.40;92.00
19256;DHT22;9762;52.490;13.410;2024-01-27T01:04:43;9.40;92.30
19256;DHT22;9762;52.490;13.410;2024-01-27T01:07:10;9.40;92.30
19256;DHT22;9762;52.490;13.410;2024-01-27T01:09:36;9.40;92.10
19256;DHT22;9762;52.490;13.410;2024-01-27T01:12:01;9.40;91.90
19256;DHT22;9762;52.490;13.410;2024-01-27T01:14:27;9.40;91.80
19256;DHT22;9762;52.490;13.410;2024-01-27T01:16:53;9.40;92.00
19256;DHT22;9762;52.490;13.410;2024-01-27T01:19:18;9.40;91.90
19256;DHT22;9762;52.490;13.410;2024-01-27T01:21:44;9.40;92.00
19256;DHT22;9762;52.490;13.410;2024-01-27T01:24:10;9.40;92.00
19256;DHT22;9762;52.490;13.410;2024-01-27T01:26:35;9.40;92.10
19256;DHT22;9762;52.490;13.410;2024-01-27T01:29:01;9.40;92.00
19256;DHT22;9762;52.490;13.410;2024-01-27T01:31:27;9.40;91.90
19256;DHT22;9762;52.490;13.410;2024-01-27T01:33:52;9.40;92.00
19256;DHT22;9762;52.490;13.410;2024-01-27T01:36:18;9.50;92.10
19256;DHT22;9762;52.490;13.410;2024-01-27T01:38:44;9.50;91.90
19256;DHT22;9762;52.490;13.410;2024-01-27T01:41:10;9.50;91.70
19256;DHT22;9762;52.490;13.410;2024-01-27T01:43:35;9.50;91.90
19256;DHT22;9762;52.490;13.410;2024-01-27T01:46:01;9.50;91.90
19256;DHT22;9762;52.490;13.410;2024-01-27T01:48:27;9.50;91.80
19256;DHT22;9762;52.490;13.410;2024-01-27T01:50:53;9.50;91.70
19256;DHT22;9762;52.490;13.410;2024-01-27T01:53:18;9.50;91.90
19256;DHT22;9762;52.490;13.410;2024-01-27T01:55:44;9.50;91.90
19256;DHT22;9762;52.490;13.410;2024-01-27T01:58:11;9.40;91.80
19256;DHT22;9762;52.490;13.410;2024-01-27T02:00:37;9.40;91.90
19256;DHT22;9762;52.490;13.410;2024-01-27T02:03:03;9.50;92.00
19256;DHT22;9762;52.490;13.410;2024-01-27T02:05:29;9.40;92.20
19256;DHT22;9762;52.490;13.410;2024-01-27T02:07:54;9.40;92.10
19256;DHT22;9762;52.490;13.410;2024-01-27T02:10:22;9.40;92.20
19256;DHT22;9762;52.490;13.410;2024-01-27T02:12:47;9.40;92.20
19256;DHT22;9762;52.490;13.410;2024-01-27T02:15:13;9.40;92.20
19256;DHT22;9762;52.490;13.410;2024-01-27T02:17:40;9.40;92.40
19256;DHT22;9762;52.490;13.410;2024-01-27T02:20:06;9.40;92.50
19256;DHT22;9762;52.490;13.410;2024-01-27T02:22:35;9.50;92.50
19256;DHT22;9762;52.490;13.410;2024-01-27T02:25:05;9.50;92.50
19256;DHT22;9762;52.490;13.410;2024-01-27T02:27:31;9.50;92.60
19256;DHT22;9762;52.490;13.410;2024-01-27T02:29:56;9.50;92.50
19256;DHT22;9762;52.490;13.410;2024-01-27T02:32:22;9.50;92.50
19256;DHT22;9762;52.490;13.410;2024-01-27T02:34:47;9.50;92.70
19256;DHT22;9762;52.490;13.410;2024-01-27T02:37:13;9.60;92.70
19256;DHT22;9762;52.490;13.410;2024-01-27T02:39:39;9.60;92.70
19256;DHT22;9762;52.490;13.410;2024-01-27T02:42:06;9.60;92.70
19256;DHT22;9762;52.490;13.410;2024-01-27T02:44:31;9.60;92.70
19256;DHT22;9762;52.490;13.410;2024-01-27T02:46:57;9.50;92.60
19256;DHT22;9762;52.490;13.410;2024-01-27T02:49:23;9.50;92.80
19256;DHT22;9762;52.490;13.410;2024-01-27T02:51:49;9.50;92.80
19256;DHT22;9762;52.490;13.410;2024-01-27T02:54:14;9.50;93.20
19256;DHT22;9762;52.490;13.410;2024-01-27T02:56:40;9.40;92.90
19256;DHT22;9762;52.490;13.410;2024-01-27T02:59:06;9.40;92.90
19256;DHT22;9762;52.490;13.410;2024-01-27T03:01:32;9.40;92.90
19256;DHT22;9762;52.490;13.410;2024-01-27T03:03:57;9.40;93.20
19256;DHT22;9762;52.490;13.410;2024-01-27T03:06:23;9.40;92.90
19256;DHT22;9762;52.490;13.410;2024-01-27T03:08:48;9.40;92.90
19256;DHT22;9762;52.490;13.410;2024-01-27T03:11:14;9.40;92.90
19256;DHT22;9762;52.490;13.410;2024-01-27T03:13:40;9.40;92.90
19256;DHT22;9762;52.490;13.410;2024-01-27T03:16:10;9.40;93.00
19256;DHT22;9762;52.490;13.410;2024-01-27T03:18:36;9.40;92.90
19256;DHT22;9762;52.490;13.410;2024-01-27T03:21:03;9.50;92.90
19256;DHT22;9762;52.490;13.410;2024-01-27T03:23:28;9.50;92.80
19256;DHT22;9762;52.490;13.410;2024-01-27T03:25:54;9.40;92.80
19256;DHT22;9762;52.490;13.410;2024-01-27T03:28:20;9.40;92.90
19256;DHT22;9762;52.490;13.410;2024-01-27T03:30:46;9.40;92.80
19256;DHT22;9762;52.490;13.410;2024-01-27T03:33:12;9.40;92.90
19256;DHT22;9762;52.490;13.410;2024-01-27T03:35:39;9.30;93.00
19256;DHT22;9762;52.490;13.410;2024-01-27T03:38:08;9.30;93.10
19256;DHT22;9762;52.490;13.410;2024-01-27T03:40:34;9.30;93.20
19256;DHT22;9762;52.490;13.410;2024-01-27T03:42:59;9.20;93.30
19256;DHT22;9762;52.490;13.410;2024-01-27T03:45:25;9.20;93.30
19256;DHT22;9762;52.490;13.410;2024-01-27T03:47:51;9.30;93.40
19256;DHT22;9762;52.490;13.410;2024-01-27T03:50:17;9.30;93.30
19256;DHT22;9762;52.490;13.410;2024-01-27T03:52:42;9.30;93.30
19256;DHT22;9762;52.490;13.410;2024-01-27T03:55:08;9.30;93.20
19256;DHT22;9762;52.490;13.410;2024-01-27T03:57:34;9.30;93.30
19256;DHT22;9762;52.490;13.410;2024-01-27T03:59:59;9.20;93.30
19256;DHT22;9762;52.490;13.410;2024-01-27T04:02:25;9.20;93.40
19256;DHT22;9762;52.490;13.410;2024-01-27T04:04:50;9.20;93.60
19256;DHT22;9762;52.490;13.410;2024-01-27T04:07:16;9.10;93.50
19256;DHT22;9762;52.490;13.410;2024-01-27T04:09:42;9.20;93.60
19256;DHT22;9762;52.490;13.410;2024-01-27T04:12:07;9.10;93.60
19256;DHT22;9762;52.490;13.410;2024-01-27T04:14:33;9.00;93.70
19256;DHT22;9762;52.490;13.410;2024-01-27T04:16:59;9.00;93.80
19256;DHT22;9762;52.490;13.410;2024-01-27T04:19:24;9.00;94.00
19256;DHT22;9762;52.490;13.410;2024-01-27T04:21:50;8.90;94.10
19256;DHT22;9762;52.490;13.410;2024-01-27T04:24:15;8.90;94.10
19256;DHT22;9762;52.490;13.410;2024-01-27T04:26:41;8.90;94.20
19256;DHT22;9762;52.490;13.410;2024-01-27T04:29:07;8.90;94.20
19256;DHT22;9762;52.490;13.410;2024-01-27T04:31:33;8.80;94.20
19256;DHT22;9762;52.490;13.410;2024-01-27T04:33:59;8.80;94.30
19256;DHT22;9762;52.490;13.410;2024-01-27T04:36:29;8.80;94.40
19256;DHT22;9762;52.490;13.410;2024-01-27T04:38:55;8.70;94.70
19256;DHT22;9762;52.490;13.410;2024-01-27T04:41:20;8.80;94.70
19256;DHT22;9762;52.490;13.410;2024-01-27T04:43:46;8.80;94.70
19256;DHT22;9762;52.490;13.410;2024-01-27T04:46:12;8.80;94.70
19256;DHT22;9762;52.490;13.410;2024-01-27T04:48:37;8.70;94.70
19256;DHT22;9762;52.490;13.410;2024-01-27T04:51:03;8.80;94.90
19256;DHT22;9762;52.490;13.410;2024-01-27T04:53:29;8.80;94.90
19256;DHT22;9762;52.490;13.410;2024-01-27T04:55:54;8.90;94.90
19256;DHT22;9762;52.490;13.410;2024-01-27T04:58:20;9.00;94.80
19256;DHT22;9762;52.490;13.410;2024-01-27T05:00:46;9.00;94.80
19256;DHT22;9762;52.490;13.410;2024-01-27T05:03:11;9.10;94.60
19256;DHT22;9762;52.490;13.410;2024-01-27T05:05:42;9.10;94.50
19256;DHT22;9762;52.490;13.410;2024-01-27T05:08:08;9.10;94.40
19256;DHT22;9762;52.490;13.410;2024-01-27T05:10:35;9.10;94.40
19256;DHT22;9762;52.490;13.410;2024-01-27T05:13:02;9.10;94.30
19256;DHT22;9762;52.490;13.410;2024-01-27T05:15:28;9.10;94.40
19256;DHT22;9762;52.490;13.410;2024-01-27T05:17:53;9.10;94.40
19256;DHT22;9762;52.490;13.410;2024-01-27T05:20:19;9.10;94.40
19256;DHT22;9762;52.490;13.410;2024-01-27T05:22:45;9.10;94.40
19256;DHT22;9762;52.490;13.410;2024-01-27T05:25:11;9.20;94.50
19256;DHT22;9762;52.490;13.410;2024-01-27T05:27:37;9.10;94.50
19256;DHT22;9762;52.490;13.410;2024-01-27T05:30:05;9.00;94.70
19256;DHT22;9762;52.490;13.410;2024-01-27T05:32:31;9.10;94.70
19256;DHT22;9762;52.490;13.410;2024-01-27T05:34:56;9.00;94.70
19256;DHT22;9762;52.490;13.410;2024-01-27T05:37:22;9.00;94.70
19256;DHT22;9762;52.490;13.410;2024-01-27T05:39:47;9.00;94.80
19256;DHT22;9762;52.490;13.410;2024-01-27T05:42:13;9.10;94.80
19256;DHT22;9762;52.490;13.410;2024-01-27T05:44:39;9.00;94.80
19256;DHT22;9762;52.490;13.410;2024-01-27T05:47:06;9.10;94.70
19256;DHT22;9762;52.490;13.410;2024-01-27T05:49:32;9.10;94.80
19256;DHT22;9762;52.490;13.410;2024-01-27T05:51:58;9.00;94.80
19256;DHT22;9762;52.490;13.410;2024-01-27T05:54:24;9.10;95.00
19256;DHT22;9762;52.490;13.410;2024-01-27T05:56:50;9.00;94.80
19256;DHT22;9762;52.490;13.410;2024-01-27T05:59:15;9.00;95.00
19256;DHT22;9762;52.490;13.410;2024-01-27T06:01:41;9.00;95.00
19256;DHT22;9762;52.490;13.410;2024-01-27T06:04:09;9.00;94.90
19256;DHT22;9762;52.490;13.410;2024-01-27T06:06:37;9.00;95.00
19256;DHT22;9762;52.490;13.410;2024-01-27T06:09:03;9.10;95.10
19256;DHT22;9762;52.490;13.410;2024-01-27T06:11:29;9.10;95.00
19256;DHT22;9762;52.490;13.410;2024-01-27T06:13:55;9.00;94.90
19256;DHT22;9762;52.490;13.410;2024-01-27T06:16:22;9.00;95.00
19256;DHT22;9762;52.490;13.410;2024-01-27T06:18:48;9.00;95.10
19256;DHT22;9762;52.490;13.410;2024-01-27T06:21:14;9.00;95.10
19256;DHT22;9762;52.490;13.410;2024-01-27T06:23:39;9.00;95.30
19256;DHT22;9762;52.490;13.410;2024-01-27T06:26:06;9.00;95.20
19256;DHT22;9762;52.490;13.410;2024-01-27T06:28:32;9.00;95.20
19256;DHT22;9762;52.490;13.410;2024-01-27T06:30:58;9.00;95.20
19256;DHT22;9762;52.490;13.410;2024-01-27T06:33:23;9.10;95.30
19256;DHT22;9762;52.490;13.410;2024-01-27T06:35:49;9.10;95.30
19256;DHT22;9762;52.490;13.410;2024-01-27T06:38:15;9.10;95.20
19256;DHT22;9762;52.490;13.410;2024-01-27T06:40:40;9.20;95.20
19256;DHT22;9762;52.490;13.410;2024-01-27T06:43:06;9.20;95.20
19256;DHT22;9762;52.490;13.410;2024-01-27T06:45:32;9.20;95.30
19256;DHT22;9762;52.490;13.410;2024-01-27T06:47:57;9.20;95.30
19256;DHT22;9762;52.490;13.410;2024-01-27T06:50:23;9.20;95.20
19256;DHT22;9762;52.490;13.410;2024-01-27T06:52:49;9.20;95.30
19256;DHT22;9762;52.490;13.410;2024-01-27T06:55:14;9.30;95.30
19256;DHT22;9762;52.490;13.410;2024-01-27T06:57:40;9.30;95.20
19256;DHT22;9762;52.490;13.410;2024-01-27T07:00:06;9.30;95.20
19256;DHT22;9762;52.490;13.410;2024-01-27T07:02:32;9.30;95.20
19256;DHT22;9762;52.490;13.410;2024-01-27T07:04:58;9.30;95.10
19256;DHT22;9762;52.490;13.410;2024-01-27T07:07:28;9.30;95.20
19256;DHT22;9762;52.490;13.410;2024-01-27T07:09:57;9.30;95.20
19256;DHT22;9762;52.490;13.410;2024-01-27T07:12:23;9.30;95.30
19256;DHT22;9762;52.490;13.410;2024-01-27T07:14:49;9.40;95.40
19256;DHT22;9762;52.490;13.410;2024-01-27T07:17:15;9.40;95.60
19256;DHT22;9762;52.490;13.410;2024-01-27T07:19:41;9.30;95.10
19256;DHT22;9762;52.490;13.410;2024-01-27T07:22:06;9.30;95.20
19256;DHT22;9762;52.490;13.410;2024-01-27T07:24:32;9.40;95.40
19256;DHT22;9762;52.490;13.410;2024-01-27T07:27:00;9.50;95.30
19256;DHT22;9762;52.490;13.410;2024-01-27T07:29:26;9.50;95.10
19256;DHT22;9762;52.490;13.410;2024-01-27T07:31:51;9.50;94.90
19256;DHT22;9762;52.490;13.410;2024-01-27T07:34:17;9.50;94.90
19256;DHT22;9762;52.490;13.410;2024-01-27T07:36:43;9.50;95.00
19256;DHT22;9762;52.490;13.410;2024-01-27T07:39:09;9.60;95.00
19256;DHT22;9762;52.490;13.410;2024-01-27T07:41:35;9.70;94.80
19256;DHT22;9762;52.490;13.410;2024-01-27T07:44:08;9.70;94.70
19256;DHT22;9762;52.490;13.410;2024-01-27T07:46:34;9.80;94.60
19256;DHT22;9762;52.490;13.410;2024-01-27T07:49:01;9.90;94.60
19256;DHT22;9762;52.490;13.410;2024-01-27T07:51:28;10.00;94.60
19256;DHT22;9762;52.490;13.410;2024-01-27T07:53:53;10.00;94.10
19256;DHT22;9762;52.490;13.410;2024-01-27T07:56:19;10.10;94.20
19256;DHT22;9762;52.490;13.410;2024-01-27T07:58:45;10.20;94.40
19256;DHT22;9762;52.490;13.410;2024-01-27T08:01:13;10.20;93.90
19256;DHT22;9762;52.490;13.410;2024-01-27T08:03:39;10.30;93.90
19256;DHT22;9762;52.490;13.410;2024-01-27T08:06:05;10.30;93.70
19256;DHT22;9762;52.490;13.410;2024-01-27T08:08:34;10.30;93.50
19256;DHT22;9762;52.490;13.410;2024-01-27T08:11:00;10.30;93.60
19256;DHT22;9762;52.490;13.410;2024-01-27T08:13:25;10.20;93.50
19256;DHT22;9762;52.490;13.410;2024-01-27T08:15:51;10.20;93.80
19256;DHT22;9762;52.490;13.410;2024-01-27T08:18:16;10.30;93.70
19256;DHT22;9762;52.490;13.410;2024-01-27T08:20:42;10.30;93.50
19256;DHT22;9762;52.490;13.410;2024-01-27T08:23:08;10.30;93.50
19256;DHT22;9762;52.490;13.410;2024-01-27T08:25:34;10.30;93.60
19256;DHT22;9762;52.490;13.410;2024-01-27T08:28:00;10.30;93.60
19256;DHT22;9762;52.490;13.410;2024-01-27T08:30:26;10.30;93.60
19256;DHT22;9762;52.490;13.410;2024-01-27T08:32:51;10.40;93.50
19256;DHT22;9762;52.490;13.410;2024-01-27T08:35:17;10.40;93.50
19256;DHT22;9762;52.490;13.410;2024-01-27T08:37:42;10.40;93.40
19256;DHT22;9762;52.490;13.410;2024-01-27T08:40:08;10.40;93.40
19256;DHT22;9762;52.490;13.410;2024-01-27T08:42:34;10.50;93.50
19256;DHT22;9762;52.490;13.410;2024-01-27T08:45:00;10.50;93.40
19256;DHT22;9762;52.490;13.410;2024-01-27T08:47:25;10.60;93.30
19256;DHT22;9762;52.490;13.410;2024-01-27T08:49:51;10.50;93.10
19256;DHT22;9762;52.490;13.410;2024-01-27T08:52:16;10.50;93.20
19256;DHT22;9762;52.490;13.410;2024-01-27T08:54:42;10.40;93.40
19256;DHT22;9762;52.490;13.410;2024-01-27T08:57:08;10.50;93.50
19256;DHT22;9762;52.490;13.410;2024-01-27T08:59:34;10.60;93.20
19256;DHT22;9762;52.490;13.410;2024-01-27T09:02:01;10.60;93.20
19256;DHT22;9762;52.490;13.410;2024-01-27T09:04:27;10.60;93.20
19256;DHT22;9762;52.490;13.410;2024-01-27T09:06:52;10.70;93.30
19256;DHT22;9762;52.490;13.410;2024-01-27T09:09:18;10.70;93.00
19256;DHT22;9762;52.490;13.410;2024-01-27T09:11:44;10.70;93.10
19256;DHT22;9762;52.490;13.410;2024-01-27T09:14:11;10.70;93.10
19256;DHT22;9762;52.490;13.410;2024-01-27T09:16:37;10.80;93.00
19256;DHT22;9762;52.490;13.410;2024-01-27T09:19:02;10.70;92.90
19256;DHT22;9762;52.490;13.410;2024-01-27T09:21:28;10.80;92.90
19256;DHT22;9762;52.490;13.410;2024-01-27T09:23:55;10.80;92.90
19256;DHT22;9762;52.490;13.410;2024-01-27T09:26:22;10.80;92.80
19256;DHT22;9762;52.490;13.410;2024-01-27T09:28:48;10.80;92.80
19256;DHT22;9762;52.490;13.410;2024-01-27T09:31:21;10.80;92.70
19256;DHT22;9762;52.490;13.410;2024-01-27T09:33:52;10.80;92.60
19256;DHT22;9762;52.490;13.410;2024-01-27T09:36:18;10.80;92.70
19256;DHT22;9762;52.490;13.410;2024-01-27T09:38:45;10.80;92.60
19256;DHT22;9762;52.490;13.410;2024-01-27T09:41:13;10.80;92.60
19256;DHT22;9762;52.490;13.410;2024-01-27T09:43:42;10.80;92.80
19256;DHT22;9762;52.490;13.410;2024-01-27T09:46:18;10.90;92.70
19256;DHT22;9762;52.490;13.410;2024-01-27T09:48:45;10.90;92.90
19256;DHT22;9762;52.490;13.410;2024-01-27T09:51:11;10.90;92.60
19256;DHT22;9762;52.490;13.410;2024-01-27T09:53:37;10.80;92.80
19256;DHT22;9762;52.490;13.410;2024-01-27T09:56:03;10.90;92.80
19256;DHT22;9762;52.490;13.410;2024-01-27T09:58:30;10.90;92.60
19256;DHT22;9762;52.490;13.410;2024-01-27T10:00:58;10.80;92.60
19256;DHT22;9762;52.490;13.410;2024-01-27T10:03:26;10.80;92.60
19256;DHT22;9762;52.490;13.410;2024-01-27T10:05:53;10.90;92.80
19256;DHT22;9762;52.490;13.410;2024-01-27T10:08:21;10.90;92.60
19256;DHT22;9762;52.490;13.410;2024-01-27T10:10:47;11.00;92.50
19256;DHT22;9762;52.490;13.410;2024-01-27T10:13:14;11.00;92.50
19256;DHT22;9762;52.490;13.410;2024-01-27T10:15:42;11.00;92.70
19256;DHT22;9762;52.490;13.410;2024-01-27T10:18:08;11.00;92.40
19256;DHT22;9762;52.490;13.410;2024-01-27T10:20:34;11.00;92.40
19256;DHT22;9762;52.490;13.410;2024-01-27T10:23:10;10.90;92.60
19256;DHT22;9762;52.490;13.410;2024-01-27T10:25:40;10.90;92.60
19256;DHT22;9762;52.490;13.410;2024-01-27T10:28:09;11.00;92.40
19256;DHT22;9762;52.490;13.410;2024-01-27T10:30:36;11.00;92.40
19256;DHT22;9762;52.490;13.410;2024-01-27T10:33:01;11.00;92.50
19256;DHT22;9762;52.490;13.410;2024-01-27T10:35:28;11.10;92.30
19256;DHT22;9762;52.490;13.410;2024-01-27T10:37:55;11.10;92.10
19256;DHT22;9762;52.490;13.410;2024-01-27T10:40:21;11.10;92.20
19256;DHT22;9762;52.490;13.410;2024-01-27T10:42:46;11.10;92.70
19256;DHT22;9762;52.490;13.410;2024-01-27T10:45:16;11.20;92.60
19256;DHT22;9762;52.490;13.410;2024-01-27T10:47:44;11.30;92.60
19256;DHT22;9762;52.490;13.410;2024-01-27T10:50:11;11.30;92.60
19256;DHT22;9762;52.490;13.410;2024-01-27T10:52:41;11.40;92.30
19256;DHT22;9762;52.490;13.410;2024-01-27T10:55:10;11.40;92.40
19256;DHT22;9762;52.490;13.410;2024-01-27T10:57:37;11.50;92.20
19256;DHT22;9762;52.490;13.410;2024-01-27T11:00:04;11.50;92.00
19256;DHT22;9762;52.490;13.410;2024-01-27T11:02:36;11.50;92.10
19256;DHT22;9762;52.490;13.410;2024-01-27T11:05:05;11.50;92.20
19256;DHT22;9762;52.490;13.410;2024-01-27T11:07:34;11.50;92.10
19256;DHT22;9762;52.490;13.410;2024-01-27T11:10:00;11.60;91.90
19256;DHT22;9762;52.490;13.410;2024-01-27T11:12:26;11.60;91.90
19256;DHT22;9762;52.490;13.410;2024-01-27T11:14:53;11.60;92.60
19256;DHT22;9762;52.490;13.410;2024-01-27T11:17:19;11.60;92.60
19256;DHT22;9762;52.490;13.410;2024-01-27T11:19:45;11.60;92.50
19256;DHT22;9762;52.490;13.410;2024-01-27T11:22:25;11.60;92.20
19256;DHT22;9762;52.490;13.410;2024-01-27T11:25:08;11.50;92.20
19256;DHT22;9762;52.490;13.410;2024-01-27T11:27:34;11.60;91.90
19256;DHT22;9762;52.490;13.410;2024-01-27T11:30:01;11.50;91.60
19256;DHT22;9762;52.490;13.410;2024-01-27T11:32:27;11.40;91.80
19256;DHT22;9762;52.490;13.410;2024-01-27T11:34:52;11.40;91.90
19256;DHT22;9762;52.490;13.410;2024-01-27T11:37:18;11.40;91.80
19256;DHT22;9762;52.490;13.410;2024-01-27T11:39:51;11.40;92.00
19256;DHT22;9762;52.490;13.410;2024-01-27T11:42:17;11.40;92.00
19256;DHT22;9762;52.490;13.410;2024-01-27T11:44:43;11.50;92.10
19256;DHT22;9762;52.490;13.410;2024-01-27T11:47:19;11.50;92.10
19256;DHT22;9762;52.490;13.410;2024-01-27T11:49:55;11.50;92.20
19256;DHT22;9762;52.490;13.410;2024-01-27T11:52:23;11.50;92.50
19256;DHT22;9762;52.490;13.410;2024-01-27T11:54:56;11.60;92.00
19256;DHT22;9762;52.490;13.410;2024-01-27T11:57:22;11.50;91.90
19256;DHT22;9762;52.490;13.410;2024-01-27T11:59:48;11.50;92.00
19256;DHT22;9762;52.490;13.410;2024-01-27T12:02:14;11.60;92.00
19256;DHT22;9762;52.490;13.410;2024-01-27T12:04:40;11.60;92.00
19256;DHT22;9762;52.490;13.410;2024-01-27T12:07:06;11.60;91.90
19256;DHT22;9762;52.490;13.410;2024-01-27T12:09:32;11.50;92.00
19256;DHT22;9762;52.490;13.410;2024-01-27T12:11:58;11.50;91.80
19256;DHT22;9762;52.490;13.410;2024-01-27T12:14:23;11.50;91.80
19256;DHT22;9762;52.490;13.410;2024-01-27T12:16:50;11.60;91.90
19256;DHT22;9762;52.490;13.410;2024-01-27T12:19:16;11.60;91.80
19256;DHT22;9762;52.490;13.410;2024-01-27T12:21:48;11.50;91.60
19256;DHT22;9762;52.490;13.410;2024-01-27T12:24:17;11.50;91.70
19256;DHT22;9762;52.490;13.410;2024-01-27T12:26:44;11.50;91.70
19256;DHT22;9762;52.490;13.410;2024-01-27T12:29:10;11.50;91.40
19256;DHT22;9762;52.490;13.410;2024-01-27T12:31:36;11.50;91.20
19256;DHT22;9762;52.490;13.410;2024-01-27T12:34:02;11.50;91.20
19256;DHT22;9762;52.490;13.410;2024-01-27T12:36:28;11.50;91.30
19256;DHT22;9762;52.490;13.410;2024-01-27T12:38:58;11.40;91.20
19256;DHT22;9762;52.490;13.410;2024-01-27T12:41:28;11.40;91.20
19256;DHT22;9762;52.490;13.410;2024-01-27T12:43:55;11.40;91.20
19256;DHT22;9762;52.490;13.410;2024-01-27T12:46:21;11.30;91.10
19256;DHT22;9762;52.490;13.410;2024-01-27T12:48:47;11.30;91.20
19256;DHT22;9762;52.490;13.410;2024-01-27T12:51:12;11.20;91.20
19256;DHT22;9762;52.490;13.410;2024-01-27T12:53:40;11.20;91.40
19256;DHT22;9762;52.490;13.410;2024-01-27T12:56:10;11.20;91.20
19256;DHT22;9762;52.490;13.410;2024-01-27T12:58:36;11.20;91.40
19256;DHT22;9762;52.490;13.410;2024-01-27T13:01:02;11.20;91.40
19256;DHT22;9762;52.490;13.410;2024-01-27T13:03:28;11.30;91.30
19256;DHT22;9762;52.490;13.410;2024-01-27T13:05:55;11.30;91.30
19256;DHT22;9762;52.490;13.410;2024-01-27T13:08:21;11.40;91.40
19256;DHT22;9762;52.490;13.410;2024-01-27T13:10:48;11.40;91.30
19256;DHT22;9762;52.490;13.410;2024-01-27T13:13:13;11.50;91.40
19256;DHT22;9762;52.490;13.410;2024-01-27T13:15:39;11.60;91.40
19256;DHT22;9762;52.490;13.410;2024-01-27T13:18:05;11.60;91.10
19256;DHT22;9762;52.490;13.410;2024-01-27T13:20:31;11.70;91.50
19256;DHT22;9762;52.490;13.410;2024-01-27T13:22:58;11.70;91.00
19256;DHT22;9762;52.490;13.410;2024-01-27T13:25:24;11.70;91.10
19256;DHT22;9762;52.490;13.410;2024-01-27T13:27:50;11.80;91.10
19256;DHT22;9762;52.490;13.410;2024-01-27T13:30:16;11.90;91.10
19256;DHT22;9762;52.490;13.410;2024-01-27T13:32:43;12.00;90.90
19256;DHT22;9762;52.490;13.410;2024-01-27T13:35:10;12.00;90.70
19256;DHT22;9762;52.490;13.410;2024-01-27T13:37:36;12.00;90.70
19256;DHT22;9762;52.490;13.410;2024-01-27T13:40:03;12.00;90.70
19256;DHT22;9762;52.490;13.410;2024-01-27T13:42:29;12.10;90.90
19256;DHT22;9762;52.490;13.410;2024-01-27T13:44:55;12.10;90.90
19256;DHT22;9762;52.490;13.410;2024-01-27T13:47:21;12.20;90.60
19256;DHT22;9762;52.490;13.410;2024-01-27T13:49:47;12.20;90.50
19256;DHT22;9762;52.490;13.410;2024-01-27T13:52:13;12.20;90.40
19256;DHT22;9762;52.490;13.410;2024-01-27T13:54:38;12.30;90.30
19256;DHT22;9762;52.490;13.410;2024-01-27T13:57:04;12.30;90.40
19256;DHT22;9762;52.490;13.410;2024-01-27T13:59:30;12.30;90.20
19256;DHT22;9762;52.490;13.410;2024-01-27T14:01:56;12.30;90.10
19256;DHT22;9762;52.490;13.410;2024-01-27T14:04:25;12.30;90.10
19256;DHT22;9762;52.490;13.410;2024-01-27T14:06:54;12.30;90.10
19256;DHT22;9762;52.490;13.410;2024-01-27T14:09:20;12.20;90.40
19256;DHT22;9762;52.490;13.410;2024-01-27T14:11:47;12.20;90.50
19256;DHT22;9762;52.490;13.410;2024-01-27T14:14:12;12.20;90.60
19256;DHT22;9762;52.490;13.410;2024-01-27T14:16:38;12.20;90.60
19256;DHT22;9762;52.490;13.410;2024-01-27T14:19:03;12.20;90.60
19256;DHT22;9762;52.490;13.410;2024-01-27T14:21:29;12.20;90.40
19256;DHT22;9762;52.490;13.410;2024-01-27T14:23:55;12.20;90.40
19256;DHT22;9762;52.490;13.410;2024-01-27T14:26:27;12.10;90.30
19256;DHT22;9762;52.490;13.410;2024-01-27T14:28:54;12.00;90.50
19256;DHT22;9762;52.490;13.410;2024-01-27T14:31:20;11.90;90.70
19256;DHT22;9762;52.490;13.410;2024-01-27T14:33:46;11.90;90.80
19256;DHT22;9762;52.490;13.410;2024-01-27T14:36:12;11.90;90.70
19256;DHT22;9762;52.490;13.410;2024-01-27T14:38:37;11.90;90.80
19256;DHT22;9762;52.490;13.410;2024-01-27T14:41:04;11.90;90.80
19256;DHT22;9762;52.490;13.410;2024-01-27T14:43:30;11.90;90.80
19256;DHT22;9762;52.490;13.410;2024-01-27T14:45:56;12.00;90.90
19256;DHT22;9762;52.490;13.410;2024-01-27T14:48:22;12.10;90.90
19256;DHT22;9762;52.490;13.410;2024-01-27T14:50:47;12.10;90.50
19256;DHT22;9762;52.490;13.410;2024-01-27T14:53:18;12.20;90.50
19256;DHT22;9762;52.490;13.410;2024-01-27T14:55:44;12.20;90.70
19256;DHT22;9762;52.490;13.410;2024-01-27T14:58:10;12.20;90.60
19256;DHT22;9762;52.490;13.410;2024-01-27T15:00:36;12.20;90.60
19256;DHT22;9762;52.490;13.410;2024-01-27T15:03:05;12.30;90.60
19256;DHT22;9762;52.490;13.410;2024-01-27T15:05:31;12.40;90.30
19256;DHT22;9762;52.490;13.410;2024-01-27T15:08:02;12.40;90.30
19256;DHT22;9762;52.490;13.410;2024-01-27T15:10:27;12.40;90.40
19256;DHT22;9762;52.490;13.410;2024-01-27T15:12:53;12.50;90.40
19256;DHT22;9762;52.490;13.410;2024-01-27T15:15:19;12.60;90.30
19256;DHT22;9762;52.490;13.410;2024-01-27T15:17:45;12.60;90.40
19256;DHT22;9762;52.490;13.410;2024-01-27T15:20:11;12.70;90.20
19256;DHT22;9762;52.490;13.410;2024-01-27T15:22:37;12.70;89.60
19256;DHT22;9762;52.490;13.410;2024-01-27T15:25:03;12.70;89.50
19256;DHT22;9762;52.490;13.410;2024-01-27T15:27:30;12.60;89.90
19256;DHT22;9762;52.490;13.410;2024-01-27T15:29:56;12.70;89.80
19256;DHT22;9762;52.490;13.410;2024-01-27T15:32:22;12.70;89.70